createdAt,value
2018-06-13T00:01:51.852Z,8.87
2018-06-13T00:04:19.464Z,5.13
2018-06-13T00:06:47.048Z,6.00
2018-06-13T00:09:14.667Z,5.40
2018-06-13T00:11:42.239Z,7.87
2018-06-13T00:14:09.828Z,8.10
2018-06-13T00:16:37.424Z,9.87
2018-06-13T00:19:05.075Z,7.47
2018-06-13T00:21:32.659Z,10.27
2018-06-13T00:24:00.273Z,13.20
2018-06-13T00:26:27.873Z,18.73
2018-06-13T00:28:55.484Z,14.10
2018-06-13T00:31:23.052Z,13.37
2018-06-13T00:33:50.665Z,14.37
2018-06-13T00:36:18.257Z,14.43
2018-06-13T00:38:45.825Z,9.60
2018-06-13T00:41:13.413Z,14.00
2018-06-13T00:43:40.920Z,12.50
2018-06-13T00:46:08.500Z,14.83
2018-06-13T00:48:36.092Z,13.60
2018-06-13T00:51:03.704Z,12.07
2018-06-13T00:53:31.352Z,12.67
2018-06-13T00:56:10.370Z,12.23
2018-06-13T00:58:37.996Z,11.30
2018-06-13T01:01:05.577Z,10.73
2018-06-13T01:03:33.160Z,13.67
2018-06-13T01:06:00.720Z,11.37
2018-06-13T01:08:28.456Z,10.53
2018-06-13T01:10:57.056Z,13.20
2018-06-13T01:13:24.660Z,10.40
2018-06-13T01:15:52.232Z,13.30
2018-06-13T01:18:19.807Z,11.30
2018-06-13T01:20:47.416Z,12.57
2018-06-13T01:23:14.996Z,8.57
2018-06-13T01:25:43.593Z,12.63
2018-06-13T01:28:11.214Z,10.63
2018-06-13T01:30:38.823Z,15.20
2018-06-13T01:33:06.517Z,10.70
2018-06-13T01:35:34.109Z,11.83
2018-06-13T01:38:01.729Z,8.20
2018-06-13T01:40:29.345Z,8.63
2018-06-13T01:42:56.940Z,8.63
2018-06-13T01:45:25.585Z,14.23
2018-06-13T01:47:53.173Z,10.70
2018-06-13T01:50:20.757Z,12.60
2018-06-13T01:52:48.338Z,12.03
2018-06-13T01:55:15.897Z,12.33
2018-06-13T01:57:43.472Z,14.13
2018-06-13T02:00:11.057Z,14.93
2018-06-13T02:02:38.700Z,14.83
2018-06-13T02:05:06.285Z,13.90
2018-06-13T02:07:33.860Z,12.30
2018-06-13T02:10:01.433Z,13.73
2018-06-13T02:12:29.032Z,16.17
2018-06-13T02:14:56.596Z,17.37
2018-06-13T02:17:24.224Z,21.63
2018-06-13T02:19:51.804Z,23.83
2018-06-13T02:22:19.379Z,21.57
2018-06-13T02:24:46.941Z,21.53
2018-06-13T02:27:14.528Z,20.13
2018-06-13T02:29:42.109Z,20.37
2018-06-13T02:32:09.701Z,24.47
2018-06-13T02:34:37.332Z,21.17
2018-06-13T02:37:04.896Z,26.23
2018-06-13T02:39:32.520Z,22.60
2018-06-13T02:42:00.121Z,21.20
2018-06-13T02:44:27.769Z,16.97
2018-06-13T02:47:00.680Z,21.30
2018-06-13T02:49:28.260Z,18.70
2018-06-13T02:51:55.828Z,19.53
2018-06-13T02:54:23.428Z,19.77
2018-06-13T02:56:51.052Z,22.40
2018-06-13T02:59:18.697Z,18.20
2018-06-13T03:01:47.320Z,27.43
2018-06-13T03:04:14.908Z,16.10
2018-06-13T03:06:42.496Z,22.37
2018-06-13T03:09:10.063Z,18.20
2018-06-13T03:11:37.673Z,15.27
2018-06-13T03:14:05.284Z,17.43
2018-06-13T03:16:32.853Z,22.07
2018-06-13T03:19:00.460Z,23.23
2018-06-13T03:21:28.021Z,25.47
2018-06-13T03:23:55.601Z,20.20
2018-06-13T03:26:23.221Z,19.63
2018-06-13T03:28:50.824Z,19.50
2018-06-13T03:31:19.272Z,23.03
2018-06-13T03:33:46.882Z,20.97
2018-06-13T03:36:14.461Z,17.37
2018-06-13T03:38:42.148Z,21.53
2018-06-13T03:41:09.791Z,24.80
2018-06-13T03:43:37.257Z,14.97
2018-06-13T03:46:05.888Z,17.60
2018-06-13T03:48:33.480Z,14.53
2018-06-13T03:51:01.117Z,21.93
2018-06-13T03:53:28.780Z,17.37
2018-06-13T03:55:56.365Z,19.00
2018-06-13T03:58:23.980Z,21.17
2018-06-13T04:00:51.589Z,18.10
2018-06-13T04:03:19.180Z,19.17
2018-06-13T04:05:46.782Z,16.27
2018-06-13T04:08:14.389Z,15.33
2018-06-13T04:10:41.961Z,16.97
2018-06-13T04:13:09.632Z,11.83
2018-06-13T04:15:37.372Z,15.90
2018-06-13T04:18:05.864Z,10.70
2018-06-13T04:20:33.644Z,7.43
2018-06-13T04:23:01.280Z,2.53
2018-06-13T04:25:28.841Z,2.80
2018-06-13T04:27:56.446Z,5.93
2018-06-13T04:30:24.021Z,4.20
2018-06-13T04:32:51.603Z,2.70
2018-06-13T04:35:19.218Z,2.40
2018-06-13T04:37:46.830Z,3.30
2018-06-13T04:40:14.400Z,4.40
2018-06-13T04:42:42.004Z,3.00
2018-06-13T04:45:09.576Z,4.77
2018-06-13T04:47:37.169Z,5.80
2018-06-13T04:50:04.752Z,10.40
2018-06-13T04:52:32.346Z,12.23
2018-06-13T04:54:59.928Z,18.37
2018-06-13T04:57:27.506Z,17.17
2018-06-13T04:59:55.089Z,18.57
2018-06-13T05:02:22.675Z,16.23
2018-06-13T05:04:50.240Z,17.20
2018-06-13T05:07:17.828Z,17.50
2018-06-13T05:09:45.425Z,15.77
2018-06-13T05:12:13.050Z,17.20
2018-06-13T05:14:40.647Z,15.53
2018-06-13T05:17:08.239Z,14.30
2018-06-13T05:19:35.796Z,14.80
2018-06-13T05:22:03.425Z,16.43
2018-06-13T05:24:30.984Z,15.33
2018-06-13T05:26:58.570Z,14.27
2018-06-13T05:29:26.191Z,13.90
2018-06-13T05:31:53.785Z,14.20
2018-06-13T05:34:21.411Z,12.80
2018-06-13T05:36:49.018Z,12.93
2018-06-13T05:39:16.584Z,13.97
2018-06-13T05:41:44.201Z,11.63
2018-06-13T05:44:11.773Z,10.03
2018-06-13T05:46:39.356Z,10.20
2018-06-13T05:49:06.921Z,9.43
2018-06-13T05:51:34.508Z,8.97
2018-06-13T05:54:02.068Z,10.40
2018-06-13T05:56:29.692Z,9.30
2018-06-13T05:58:57.304Z,9.97
2018-06-13T06:01:24.963Z,12.20
2018-06-13T06:03:52.552Z,12.40
2018-06-13T06:06:20.136Z,10.10
2018-06-13T06:08:47.729Z,11.90
2018-06-13T06:11:15.320Z,12.83
2018-06-13T06:13:42.927Z,11.43
2018-06-13T06:16:10.528Z,12.50
2018-06-13T06:18:38.133Z,12.10
2018-06-13T06:21:05.793Z,10.67
2018-06-13T06:23:33.424Z,12.03
2018-06-13T06:26:00.977Z,9.60
2018-06-13T06:28:28.565Z,12.30
2018-06-13T06:30:56.165Z,11.40
2018-06-13T06:33:23.789Z,9.40
2018-06-13T06:35:51.396Z,9.47
2018-06-13T06:38:18.966Z,9.77
2018-06-13T06:40:46.581Z,9.97
2018-06-13T06:43:14.179Z,10.40
2018-06-13T06:45:41.747Z,9.50
2018-06-13T06:48:10.644Z,10.57
2018-06-13T06:50:38.244Z,8.70
2018-06-13T06:53:05.895Z,9.00
2018-06-13T06:55:33.536Z,9.53
2018-06-13T06:58:01.113Z,8.60
2018-06-13T07:00:28.693Z,7.30
2018-06-13T07:02:56.268Z,8.23
2018-06-13T07:05:23.829Z,8.80
2018-06-13T07:07:51.472Z,13.80
2018-06-13T07:10:19.040Z,11.00
2018-06-13T07:12:46.640Z,10.80
2018-06-13T07:15:14.137Z,10.53
2018-06-13T07:17:41.724Z,9.80
2018-06-13T07:20:09.316Z,11.33
2018-06-13T07:22:36.906Z,8.97
2018-06-13T07:25:04.489Z,8.63
2018-06-13T07:27:32.141Z,7.73
2018-06-13T07:29:59.728Z,6.80
2018-06-13T07:32:27.440Z,6.80
2018-06-13T07:34:55.037Z,6.30
2018-06-13T07:37:22.645Z,5.97
2018-06-13T07:39:50.241Z,6.30
2018-06-13T07:42:17.844Z,6.30
2018-06-13T07:44:45.407Z,7.80
2018-06-13T07:47:12.981Z,8.30
2018-06-13T07:49:40.585Z,7.20
2018-06-13T07:52:08.181Z,11.80
2018-06-13T07:54:35.790Z,8.43
2018-06-13T07:57:03.379Z,9.70
2018-06-13T07:59:30.972Z,10.67
2018-06-13T08:01:58.533Z,13.50
2018-06-13T08:04:26.120Z,12.60
2018-06-13T08:06:53.712Z,13.50
2018-06-13T08:09:21.353Z,12.23
2018-06-13T08:11:48.935Z,10.40
2018-06-13T08:14:17.545Z,10.80
2018-06-13T08:16:45.163Z,11.70
2018-06-13T08:19:12.740Z,11.13
2018-06-13T08:21:40.344Z,12.10
2018-06-13T08:24:07.905Z,14.87
2018-06-13T08:26:35.513Z,14.37
2018-06-13T08:29:03.128Z,15.60
2018-06-13T08:31:30.745Z,14.77
2018-06-13T08:33:58.313Z,13.60
2018-06-13T08:36:25.893Z,14.10
2018-06-13T08:38:53.477Z,14.57
2018-06-13T08:41:21.068Z,16.47
2018-06-13T08:43:48.685Z,16.80
2018-06-13T08:46:16.264Z,19.30
2018-06-13T08:48:44.125Z,18.43
2018-06-13T08:51:11.612Z,16.27
2018-06-13T08:53:39.201Z,16.17
2018-06-13T08:56:06.769Z,17.20
2018-06-13T08:58:34.348Z,17.50
2018-06-13T09:01:01.919Z,21.23
2018-06-13T09:03:29.517Z,20.20
2018-06-13T09:05:58.141Z,19.83
2018-06-13T09:08:25.728Z,27.17
2018-06-13T09:10:53.293Z,20.97
2018-06-13T09:13:20.999Z,19.67
2018-06-13T09:15:49.600Z,20.13
2018-06-13T09:18:17.221Z,21.80
2018-06-13T09:20:44.809Z,24.03
2018-06-13T09:23:12.398Z,24.40
2018-06-13T09:25:39.988Z,22.57
2018-06-13T09:28:07.622Z,22.60
2018-06-13T09:30:35.205Z,21.63
2018-06-13T09:33:02.787Z,22.80
2018-06-13T09:35:30.429Z,24.40
2018-06-13T09:37:58.096Z,21.33
2018-06-13T09:40:25.732Z,24.37
2018-06-13T09:42:53.324Z,24.63
2018-06-13T09:45:20.948Z,31.93
2018-06-13T09:47:48.580Z,21.67
2018-06-13T09:50:16.141Z,24.17
2018-06-13T09:52:43.713Z,22.00
2018-06-13T09:55:11.345Z,21.03
2018-06-13T09:57:39.053Z,24.90
2018-06-13T10:01:14.076Z,24.57
2018-06-13T10:03:41.696Z,26.57
2018-06-13T10:06:09.285Z,26.10
2018-06-13T10:08:36.908Z,24.10
2018-06-13T10:11:04.492Z,25.87
2018-06-13T10:13:32.061Z,27.17
2018-06-13T10:15:59.678Z,28.70
2018-06-13T10:18:27.344Z,27.00
2018-06-13T10:20:54.965Z,27.67
2018-06-13T10:23:22.598Z,26.87
2018-06-13T10:25:50.197Z,23.97
2018-06-13T10:28:17.819Z,25.50
2018-06-13T10:30:45.379Z,27.63
2018-06-13T10:33:12.955Z,24.50
2018-06-13T10:35:40.549Z,25.00
2018-06-13T10:38:08.136Z,29.70
2018-06-13T10:40:35.731Z,29.23
2018-06-13T10:43:03.348Z,24.83
2018-06-13T10:45:30.968Z,23.90
2018-06-13T10:47:58.544Z,26.77
2018-06-13T10:50:26.141Z,32.00
2018-06-13T10:52:53.804Z,28.80
2018-06-13T10:55:21.429Z,25.40
2018-06-13T10:57:48.992Z,26.23
2018-06-13T11:00:16.625Z,25.47
2018-06-13T11:02:44.204Z,25.73
2018-06-13T11:05:11.797Z,27.37
2018-06-13T11:07:39.379Z,25.50
2018-06-13T11:10:06.992Z,25.23
2018-06-13T11:12:34.577Z,29.20
2018-06-13T11:15:02.173Z,27.10
2018-06-13T11:17:29.736Z,26.53
2018-06-13T11:19:57.302Z,27.13
2018-06-13T11:22:24.952Z,26.30
2018-06-13T11:24:52.552Z,26.83
2018-06-13T11:27:20.146Z,25.47
2018-06-13T11:29:47.739Z,31.87
2018-06-13T11:32:15.302Z,34.83
2018-06-13T11:34:42.904Z,27.90
2018-06-13T11:37:10.472Z,25.50
2018-06-13T11:39:38.061Z,25.60
2018-06-13T11:42:05.694Z,26.63
2018-06-13T11:44:33.249Z,27.93
2018-06-13T11:47:00.862Z,27.80
2018-06-13T11:49:28.452Z,25.50
2018-06-13T11:51:56.038Z,33.10
2018-06-13T11:54:23.634Z,25.40
2018-06-13T11:56:52.320Z,26.07
2018-06-13T11:59:19.897Z,25.73
2018-06-13T12:01:47.553Z,29.03
2018-06-13T12:04:15.141Z,30.37
2018-06-13T12:06:42.752Z,36.40
2018-06-13T12:09:10.321Z,29.37
2018-06-13T12:11:37.934Z,31.87
2018-06-13T12:14:05.594Z,28.90
2018-06-13T12:16:33.208Z,27.10
2018-06-13T12:19:00.776Z,30.07
2018-06-13T12:21:29.316Z,29.73
2018-06-13T12:23:56.814Z,27.33
2018-06-13T12:26:24.383Z,31.03
2018-06-13T12:28:52.003Z,31.87
2018-06-13T12:31:19.609Z,30.60
2018-06-13T12:33:47.168Z,31.63
2018-06-13T12:36:14.767Z,27.63
2018-06-13T12:38:42.436Z,31.73
2018-06-13T12:41:10.054Z,39.70
2018-06-13T12:43:37.634Z,29.10
2018-06-13T12:46:05.219Z,31.97
2018-06-13T12:48:32.825Z,30.30
2018-06-13T12:51:00.432Z,30.70
2018-06-13T12:53:28.004Z,37.43
2018-06-13T12:55:55.632Z,30.90
2018-06-13T12:58:23.282Z,33.80
2018-06-13T13:00:50.856Z,37.00
2018-06-13T13:03:18.493Z,32.00
2018-06-13T13:05:46.089Z,32.23
2018-06-13T13:08:13.717Z,34.43
2018-06-13T13:10:41.314Z,35.60
2018-06-13T13:13:08.884Z,32.10
2018-06-13T13:15:37.528Z,30.47
2018-06-13T13:18:05.123Z,34.40
2018-06-13T13:20:32.692Z,33.00
2018-06-13T13:23:00.280Z,34.00
2018-06-13T13:25:27.906Z,30.17
2018-06-13T13:27:55.485Z,31.00
2018-06-13T13:30:23.099Z,32.07
2018-06-13T13:32:50.793Z,35.50
2018-06-13T13:35:18.509Z,28.87
2018-06-13T13:37:46.081Z,30.83
2018-06-13T13:40:13.697Z,31.33
2018-06-13T13:42:41.972Z,30.90
2018-06-13T13:45:10.532Z,33.60
2018-06-13T13:47:39.172Z,26.17
2018-06-13T13:50:06.756Z,31.60
2018-06-13T13:52:34.390Z,27.90
2018-06-13T13:55:02.020Z,32.30
2018-06-13T13:57:30.577Z,35.67
2018-06-13T13:59:58.312Z,36.73
2018-06-13T14:02:26.605Z,35.90
2018-06-13T14:04:54.168Z,30.47
2018-06-13T14:07:21.772Z,26.63
2018-06-13T14:09:49.353Z,35.30
2018-06-13T14:12:16.990Z,35.53
2018-06-13T14:14:44.528Z,33.37
2018-06-13T14:17:11.995Z,34.83
2018-06-13T14:19:39.601Z,34.23
2018-06-13T14:22:07.270Z,33.97
2018-06-13T14:24:34.849Z,33.83
2018-06-13T14:27:02.409Z,36.47
2018-06-13T14:29:29.979Z,34.33
2018-06-13T14:31:57.575Z,33.80
2018-06-13T14:34:25.162Z,31.80
2018-06-13T14:36:52.749Z,29.30
2018-06-13T14:39:20.308Z,29.47
2018-06-13T14:41:47.940Z,25.63
2018-06-13T14:44:15.519Z,25.03
2018-06-13T14:46:43.169Z,32.40
2018-06-13T14:49:10.777Z,32.73
2018-06-13T14:51:38.348Z,27.20
2018-06-13T14:54:05.993Z,24.23
2018-06-13T14:56:34.205Z,26.13
2018-06-13T14:59:02.289Z,27.20
2018-06-13T15:01:30.162Z,29.30
2018-06-13T15:03:57.780Z,25.07
2018-06-13T15:06:25.849Z,24.60
2018-06-13T15:08:55.981Z,25.40
2018-06-13T15:11:23.689Z,23.23
2018-06-13T15:13:51.260Z,22.30
2018-06-13T15:16:19.804Z,18.83
2018-06-13T15:18:48.053Z,17.70
2018-06-13T15:21:15.857Z,20.50
2018-06-13T15:23:43.433Z,23.50
2018-06-13T15:26:11.037Z,23.17
2018-06-13T15:28:38.657Z,22.00
2018-06-13T15:31:06.397Z,23.83
2018-06-13T15:33:33.984Z,24.80
2018-06-13T15:36:01.565Z,24.37
2018-06-13T15:38:29.163Z,23.40
2018-06-13T15:40:58.204Z,25.83
2018-06-13T15:43:25.832Z,21.40
2018-06-13T15:45:53.483Z,21.50
2018-06-13T15:48:21.044Z,23.70
2018-06-13T15:50:49.038Z,21.83
2018-06-13T15:53:16.656Z,22.63
2018-06-13T15:55:44.291Z,22.90
2018-06-13T15:58:11.897Z,24.50
2018-06-13T16:00:39.497Z,24.50
2018-06-13T16:03:07.561Z,20.60
2018-06-13T16:05:35.296Z,20.53
2018-06-13T16:08:02.926Z,19.23
2018-06-13T16:10:30.524Z,24.40
2018-06-13T16:12:58.108Z,21.73
2018-06-13T16:15:25.744Z,19.50
2018-06-13T16:17:53.352Z,25.23
2018-06-13T16:20:20.950Z,23.57
2018-06-13T16:22:48.532Z,21.13
2018-06-13T16:25:16.084Z,22.90
2018-06-13T16:27:43.685Z,21.37
2018-06-13T16:30:11.268Z,25.53
2018-06-13T16:32:38.891Z,22.10
2018-06-13T16:35:06.623Z,21.33
2018-06-13T16:37:34.205Z,23.90
2018-06-13T16:40:01.845Z,25.43
2018-06-13T16:42:29.451Z,21.47
2018-06-13T16:44:57.208Z,22.00
2018-06-13T16:47:24.925Z,21.13
2018-06-13T16:49:52.489Z,19.33
2018-06-13T16:52:31.452Z,20.30
2018-06-13T16:55:24.255Z,20.90
2018-06-13T16:57:52.092Z,21.10
2018-06-13T17:00:21.504Z,24.43
2018-06-13T17:02:49.929Z,18.57
2018-06-13T17:05:17.711Z,17.73
2018-06-13T17:07:45.726Z,22.50
2018-06-13T17:10:13.701Z,21.80
2018-06-13T17:12:41.821Z,29.17
2018-06-13T17:15:09.470Z,36.70
2018-06-13T17:17:37.090Z,23.10
2018-06-13T17:20:04.692Z,22.83
2018-06-13T17:22:32.288Z,22.17
2018-06-13T17:24:59.898Z,23.73
2018-06-13T17:27:28.189Z,21.43
2018-06-13T17:29:56.069Z,21.63
2018-06-13T17:32:25.369Z,30.20
2018-06-13T17:34:54.041Z,25.67
2018-06-13T17:37:21.821Z,25.83
2018-06-13T17:39:49.692Z,21.30
2018-06-13T17:42:17.353Z,23.47
2018-06-13T17:44:45.905Z,21.17
2018-06-13T17:47:13.696Z,23.17
2018-06-13T17:49:41.864Z,25.13
2018-06-13T17:52:09.656Z,24.10
2018-06-13T17:54:37.269Z,22.37
2018-06-13T17:57:05.176Z,20.60
2018-06-13T17:59:33.724Z,24.77
2018-06-13T18:02:02.134Z,20.93
2018-06-13T18:04:29.709Z,24.77
2018-06-13T18:06:57.297Z,23.57
2018-06-13T18:09:24.862Z,29.37
2018-06-13T18:11:52.468Z,25.03
2018-06-13T18:14:20.049Z,28.60
2018-06-13T18:16:47.861Z,24.50
2018-06-13T18:19:15.461Z,25.20
2018-06-13T18:21:43.072Z,25.87
2018-06-13T18:24:11.177Z,27.43
2018-06-13T18:26:40.368Z,26.50
2018-06-13T18:29:08.560Z,26.87
2018-06-13T18:31:36.133Z,30.07
2018-06-13T18:34:05.894Z,25.13
2018-06-13T18:36:33.444Z,24.70
2018-06-13T18:39:01.955Z,27.70
2018-06-13T18:41:29.649Z,31.17
2018-06-13T18:43:57.243Z,30.50
2018-06-13T18:46:24.821Z,26.23
2018-06-13T18:48:52.377Z,30.30
2018-06-13T18:51:19.980Z,30.37
2018-06-13T18:53:47.597Z,31.27
2018-06-13T18:56:15.205Z,29.67
2018-06-13T18:58:42.848Z,24.60
2018-06-13T19:01:10.485Z,26.10
2018-06-13T19:03:38.057Z,28.60
2018-06-13T19:06:06.649Z,30.53
2018-06-13T19:08:34.300Z,28.90
2018-06-13T19:11:01.873Z,24.07
2018-06-13T19:13:29.460Z,19.97
2018-06-13T19:15:57.059Z,19.80
2018-06-13T19:18:24.615Z,20.40
2018-06-13T19:20:52.257Z,19.03
2018-06-13T19:23:19.845Z,15.77
2018-06-13T19:25:47.411Z,17.97
2018-06-13T19:28:14.993Z,19.70
2018-06-13T19:30:42.628Z,23.40
2018-06-13T19:33:10.412Z,22.67
2018-06-13T19:35:37.980Z,26.97
2018-06-13T19:38:05.546Z,27.70
2018-06-13T19:40:33.464Z,15.03
2018-06-13T19:43:01.059Z,55.33
2018-06-13T19:45:28.656Z,19.73
2018-06-13T19:48:01.965Z,16.87
2018-06-13T19:50:29.889Z,19.90
2018-06-13T19:53:03.279Z,14.60
2018-06-13T19:55:37.589Z,17.33
2018-06-13T19:58:05.184Z,15.00
2018-06-13T20:00:33.449Z,16.97
2018-06-13T20:03:06.797Z,16.57
2018-06-13T20:05:41.672Z,17.27
2018-06-13T20:08:09.264Z,15.87
2018-06-13T20:10:36.868Z,16.70
2018-06-13T20:13:10.217Z,16.10
2018-06-13T20:15:43.581Z,16.23
2018-06-13T20:18:16.784Z,17.63
2018-06-13T20:20:44.459Z,18.43
2018-06-13T20:23:12.745Z,17.37
2018-06-13T20:25:45.885Z,15.77
2018-06-13T20:28:19.108Z,16.20
2018-06-13T20:30:52.468Z,17.73
2018-06-13T20:33:20.060Z,16.50
2018-06-13T20:35:47.936Z,17.63
2018-06-13T20:38:15.549Z,18.23
2018-06-13T20:40:43.149Z,17.17
2018-06-13T20:43:10.716Z,16.83
2018-06-13T20:45:38.351Z,17.90
2018-06-13T20:48:05.941Z,16.13
2018-06-13T20:50:33.564Z,14.53
2018-06-13T20:53:01.169Z,17.07
2018-06-13T20:55:28.783Z,23.53
2018-06-13T20:57:56.377Z,15.63
2018-06-13T21:00:23.988Z,21.07
2018-06-13T21:02:51.592Z,17.87
2018-06-13T21:05:19.797Z,21.63
2018-06-13T21:07:47.413Z,19.03
2018-06-13T21:10:15.023Z,20.50
2018-06-13T21:12:43.585Z,20.70
2018-06-13T21:15:12.169Z,20.07
2018-06-13T21:17:39.762Z,22.03
2018-06-13T21:20:07.361Z,20.73
2018-06-13T21:22:34.921Z,27.00
2018-06-13T21:25:02.564Z,24.20
2018-06-13T21:27:30.144Z,20.10
2018-06-13T21:29:57.761Z,22.90
2018-06-13T21:32:25.341Z,30.60
2018-06-13T21:34:53.730Z,31.27
2018-06-13T21:37:21.343Z,29.63
2018-06-13T21:39:48.952Z,26.63
2018-06-13T21:42:16.545Z,22.13
2018-06-13T21:44:44.108Z,25.77
2018-06-13T21:47:11.694Z,24.63
2018-06-13T21:49:39.313Z,21.20
2018-06-13T21:52:06.907Z,21.10
2018-06-13T21:54:34.452Z,22.57
2018-06-13T21:57:02.021Z,25.60
2018-06-13T21:59:29.908Z,24.67
2018-06-13T22:01:57.498Z,21.63
2018-06-13T22:04:25.080Z,24.33
2018-06-13T22:06:52.788Z,27.27
2018-06-13T22:09:20.380Z,27.00
2018-06-13T22:11:53.905Z,31.50
2018-06-13T22:14:22.925Z,23.20
2018-06-13T22:16:51.086Z,22.63
2018-06-13T22:19:18.856Z,23.50
2018-06-13T22:21:46.604Z,24.87
2018-06-13T22:24:14.197Z,21.60
2018-06-13T22:26:41.756Z,25.17
2018-06-13T22:29:09.429Z,24.23
2018-06-13T22:31:37.144Z,22.10
2018-06-13T22:34:04.769Z,23.63
2018-06-13T22:36:32.342Z,26.63
2018-06-13T22:38:59.949Z,24.53
2018-06-13T22:41:28.040Z,27.30
2018-06-13T22:43:55.881Z,26.13
2018-06-13T22:46:23.456Z,28.20
2018-06-13T22:48:51.068Z,25.37
2018-06-13T22:51:19.342Z,29.07
2018-06-13T22:53:46.981Z,24.50
2018-06-13T22:56:14.589Z,25.50
2018-06-13T22:58:42.176Z,24.80
2018-06-13T23:01:10.848Z,23.37
2018-06-13T23:03:38.425Z,22.13
2018-06-13T23:06:07.196Z,22.80
2018-06-13T23:08:35.582Z,25.20
2018-06-13T23:11:03.268Z,25.80
2018-06-13T23:13:30.812Z,25.77
2018-06-13T23:15:58.397Z,25.63
2018-06-13T23:18:26.848Z,30.10
2018-06-13T23:20:54.453Z,29.50
2018-06-13T23:23:22.052Z,29.72
2018-06-13T23:25:51.328Z,28.00
2018-06-13T23:28:19.081Z,27.02
2018-06-13T23:30:46.713Z,26.77
2018-06-13T23:33:14.301Z,27.07
2018-06-13T23:35:41.946Z,27.37
2018-06-13T23:38:09.661Z,24.70
2018-06-13T23:40:37.418Z,27.45
2018-06-13T23:43:05.264Z,24.03
2018-06-13T23:45:32.832Z,25.27
2018-06-13T23:48:00.501Z,20.85
2018-06-13T23:50:28.214Z,24.67
2018-06-13T23:52:55.841Z,22.80
2018-06-13T23:55:23.437Z,22.58
2018-06-13T23:57:51.036Z,24.10
